createdAt,value
2017-12-30T00:00:32.581Z,1.70
2017-12-30T00:03:00.083Z,1.80
2017-12-30T00:05:28.347Z,1.90
2017-12-30T00:07:55.860Z,1.70
2017-12-30T00:10:23.348Z,1.80
2017-12-30T00:12:50.835Z,1.70
2017-12-30T00:15:19.118Z,1.70
2017-12-30T00:17:47.389Z,1.70
2017-12-30T00:20:14.904Z,1.60
2017-12-30T00:22:42.409Z,1.60
2017-12-30T00:25:09.925Z,1.70
2017-12-30T00:27:37.414Z,1.70
2017-12-30T00:30:04.924Z,1.70
2017-12-30T00:32:32.475Z,1.60
2017-12-30T00:34:59.963Z,1.70
2017-12-30T00:37:27.467Z,1.80
2017-12-30T00:39:55.751Z,1.80
2017-12-30T00:42:24.004Z,1.80
2017-12-30T00:44:51.519Z,1.70
2017-12-30T00:47:19.012Z,1.80
2017-12-30T00:49:46.512Z,1.80
2017-12-30T00:52:14.033Z,1.80
2017-12-30T00:54:41.525Z,1.80
2017-12-30T00:57:09.783Z,1.70
2017-12-30T00:59:37.304Z,1.60
2017-12-30T01:02:04.805Z,1.70
2017-12-30T01:04:32.304Z,1.80
2017-12-30T01:06:59.808Z,1.70
2017-12-30T01:09:27.303Z,1.70
2017-12-30T01:11:55.590Z,1.70
2017-12-30T01:14:23.105Z,1.60
2017-12-30T01:16:50.595Z,1.70
2017-12-30T01:19:18.876Z,1.80
2017-12-30T01:21:47.136Z,1.80
2017-12-30T01:24:14.657Z,1.70
2017-12-30T01:26:42.151Z,1.80
2017-12-30T01:29:09.649Z,1.90
2017-12-30T01:31:37.161Z,1.90
2017-12-30T01:34:04.654Z,1.90
2017-12-30T01:36:32.941Z,1.90
2017-12-30T01:39:00.433Z,1.90
2017-12-30T01:41:27.923Z,1.90
2017-12-30T01:43:55.442Z,2.00
2017-12-30T01:46:22.942Z,2.00
2017-12-30T01:49:02.297Z,1.90
2017-12-30T01:51:29.795Z,1.90
2017-12-30T01:53:57.307Z,1.90
2017-12-30T01:56:24.801Z,1.90
2017-12-30T01:58:52.303Z,1.90
2017-12-30T02:01:19.815Z,2.00
2017-12-30T02:03:47.313Z,2.00
2017-12-30T02:06:14.828Z,2.00
2017-12-30T02:08:42.322Z,2.00
2017-12-30T02:11:09.816Z,2.00
2017-12-30T02:13:37.332Z,2.00
2017-12-30T02:16:04.835Z,2.00
2017-12-30T02:18:32.329Z,1.90
2017-12-30T02:20:59.851Z,1.90
2017-12-30T02:23:28.114Z,1.70
2017-12-30T02:25:55.627Z,1.70
2017-12-30T02:28:23.133Z,1.70
2017-12-30T02:30:50.652Z,1.70
2017-12-30T02:33:18.148Z,1.70
2017-12-30T02:35:45.639Z,1.70
2017-12-30T02:38:13.930Z,1.70
2017-12-30T02:40:41.423Z,1.60
2017-12-30T02:43:08.932Z,1.70
2017-12-30T02:45:37.196Z,1.60
2017-12-30T02:48:04.698Z,1.50
2017-12-30T02:50:32.206Z,1.60
2017-12-30T02:52:59.703Z,1.70
2017-12-30T02:55:27.983Z,1.70
2017-12-30T02:57:55.476Z,1.60
2017-12-30T03:00:22.972Z,1.80
2017-12-30T03:02:50.492Z,1.80
2017-12-30T03:05:17.983Z,1.80
2017-12-30T03:07:45.500Z,1.70
2017-12-30T03:10:12.991Z,1.60
2017-12-30T03:12:40.485Z,1.60
2017-12-30T03:15:08.804Z,1.70
2017-12-30T03:17:36.316Z,1.60
2017-12-30T03:20:04.592Z,1.70
2017-12-30T03:22:32.852Z,1.60
2017-12-30T03:25:00.341Z,1.50
2017-12-30T03:27:28.616Z,1.60
2017-12-30T03:29:56.872Z,1.60
2017-12-30T03:32:24.388Z,1.50
2017-12-30T03:34:51.876Z,1.60
2017-12-30T03:37:19.368Z,1.60
2017-12-30T03:39:47.651Z,1.70
2017-12-30T03:42:15.907Z,1.70
2017-12-30T03:44:43.411Z,1.60
2017-12-30T03:47:10.915Z,1.70
2017-12-30T03:49:38.414Z,1.70
2017-12-30T03:52:05.911Z,1.80
2017-12-30T03:54:33.415Z,1.80
2017-12-30T03:57:01.669Z,1.90
2017-12-30T03:59:29.164Z,1.80
2017-12-30T04:01:56.680Z,1.80
2017-12-30T04:04:24.176Z,1.80
2017-12-30T04:06:52.435Z,1.90
2017-12-30T04:09:19.955Z,1.80
2017-12-30T04:11:47.464Z,1.90
2017-12-30T04:14:15.716Z,1.90
2017-12-30T04:16:43.220Z,1.70
2017-12-30T04:19:10.707Z,1.80
2017-12-30T04:21:38.208Z,1.80
2017-12-30T04:24:05.699Z,1.80
2017-12-30T04:26:33.180Z,1.80
2017-12-30T04:29:00.679Z,1.80
2017-12-30T04:31:28.171Z,1.80
2017-12-30T04:33:55.670Z,1.90
2017-12-30T04:36:23.158Z,1.90
2017-12-30T04:38:50.645Z,1.80
2017-12-30T04:41:18.926Z,1.80
2017-12-30T04:43:46.414Z,1.70
2017-12-30T04:46:13.929Z,1.80
2017-12-30T04:48:42.186Z,1.90
2017-12-30T04:51:09.675Z,1.80
2017-12-30T04:53:37.965Z,1.90
2017-12-30T04:56:05.455Z,1.80
2017-12-30T04:58:32.964Z,1.90
2017-12-30T05:01:01.210Z,2.00
2017-12-30T05:03:28.705Z,1.90
2017-12-30T05:05:56.975Z,2.10
2017-12-30T05:08:25.235Z,2.10
2017-12-30T05:10:52.743Z,2.00
2017-12-30T05:13:20.252Z,2.00
2017-12-30T05:15:47.739Z,2.00
2017-12-30T05:18:16.019Z,2.10
2017-12-30T05:20:43.507Z,2.00
2017-12-30T05:23:10.993Z,2.20
2017-12-30T05:25:38.499Z,2.20
2017-12-30T05:28:05.985Z,2.20
2017-12-30T05:30:33.496Z,2.20
2017-12-30T05:33:01.752Z,2.20
2017-12-30T05:35:29.247Z,2.10
2017-12-30T05:37:57.531Z,2.20
2017-12-30T05:40:25.019Z,2.20
2017-12-30T05:42:53.185Z,2.20
2017-12-30T05:45:20.676Z,2.20
2017-12-30T05:47:48.169Z,2.20
2017-12-30T05:50:16.447Z,2.20
2017-12-30T05:52:44.710Z,2.10
2017-12-30T05:55:13.000Z,2.20
2017-12-30T05:57:41.260Z,2.20
2017-12-30T06:00:08.746Z,2.20
2017-12-30T06:02:36.269Z,2.20
2017-12-30T06:05:03.772Z,2.30
2017-12-30T06:07:31.285Z,2.30
2017-12-30T06:09:58.789Z,2.20
2017-12-30T06:12:26.282Z,2.20
2017-12-30T06:14:53.792Z,2.20
2017-12-30T06:17:22.061Z,2.30
2017-12-30T06:19:50.321Z,2.30
2017-12-30T06:22:17.832Z,2.20
2017-12-30T06:24:45.320Z,2.30
2017-12-30T06:27:12.849Z,2.30
2017-12-30T06:29:40.349Z,2.30
2017-12-30T06:32:07.841Z,2.30
2017-12-30T06:34:36.125Z,2.20
2017-12-30T06:37:04.372Z,2.30
2017-12-30T06:39:31.877Z,2.20
2017-12-30T06:41:59.372Z,2.30
2017-12-30T06:44:26.865Z,2.30
2017-12-30T06:46:55.142Z,2.20
2017-12-30T06:49:22.628Z,2.20
2017-12-30T06:51:50.159Z,2.20
2017-12-30T06:54:17.660Z,2.20
2017-12-30T06:56:45.162Z,2.10
2017-12-30T06:59:12.684Z,2.20
2017-12-30T07:01:40.180Z,2.20
2017-12-30T07:04:07.669Z,2.20
2017-12-30T07:06:35.944Z,2.20
2017-12-30T07:09:04.201Z,2.30
2017-12-30T07:11:31.701Z,2.20
2017-12-30T07:13:59.233Z,2.30
2017-12-30T07:16:27.495Z,2.40
2017-12-30T07:18:54.984Z,2.30
2017-12-30T07:21:22.498Z,2.50
2017-12-30T07:23:49.996Z,2.50
2017-12-30T07:26:18.270Z,2.40
2017-12-30T07:28:46.549Z,2.40
2017-12-30T07:31:14.816Z,2.40
2017-12-30T07:33:42.403Z,2.30
2017-12-30T07:36:09.892Z,2.40
2017-12-30T07:38:37.421Z,2.50
2017-12-30T07:41:04.918Z,2.40
2017-12-30T07:43:32.411Z,2.40
2017-12-30T07:45:59.915Z,2.40
2017-12-30T07:48:27.409Z,2.40
2017-12-30T07:50:54.922Z,2.50
2017-12-30T07:53:22.415Z,2.50
2017-12-30T07:55:49.896Z,2.50
2017-12-30T07:58:17.406Z,2.50
2017-12-30T08:00:44.896Z,2.50
2017-12-30T08:03:12.380Z,2.60
2017-12-30T08:05:39.887Z,2.60
2017-12-30T08:08:07.384Z,2.60
2017-12-30T08:10:34.863Z,2.60
2017-12-30T08:13:03.155Z,2.70
2017-12-30T08:15:31.423Z,2.70
2017-12-30T08:17:59.679Z,2.70
2017-12-30T08:20:27.197Z,2.60
2017-12-30T08:22:54.693Z,2.80
2017-12-30T08:25:22.975Z,2.80
2017-12-30T08:27:50.492Z,2.70
2017-12-30T08:30:18.010Z,2.70
2017-12-30T08:32:46.274Z,2.70
2017-12-30T08:35:13.796Z,2.60
2017-12-30T08:37:41.303Z,2.70
2017-12-30T08:40:08.821Z,2.80
2017-12-30T08:42:36.320Z,2.70
2017-12-30T08:45:03.817Z,2.80
2017-12-30T08:47:31.320Z,2.80
2017-12-30T08:49:58.807Z,2.90
2017-12-30T08:52:27.063Z,2.90
2017-12-30T08:54:54.576Z,2.80
2017-12-30T08:57:22.073Z,2.90
2017-12-30T08:59:49.597Z,2.90
2017-12-30T09:02:17.092Z,3.00
2017-12-30T09:04:44.624Z,3.00
2017-12-30T09:07:12.139Z,3.00
2017-12-30T09:09:40.399Z,3.00
2017-12-30T09:12:07.891Z,2.90
2017-12-30T09:14:35.407Z,3.00
2017-12-30T09:17:02.891Z,3.00
2017-12-30T09:19:31.163Z,3.10
2017-12-30T09:21:58.656Z,3.00
2017-12-30T09:24:26.146Z,3.10
2017-12-30T09:26:53.667Z,3.20
2017-12-30T09:29:21.160Z,3.20
2017-12-30T09:31:48.655Z,3.20
2017-12-30T09:34:16.187Z,3.20
2017-12-30T09:36:43.681Z,3.10
2017-12-30T09:39:11.955Z,3.10
2017-12-30T09:41:39.488Z,3.00
2017-12-30T09:44:06.985Z,3.10
2017-12-30T09:46:35.268Z,3.40
2017-12-30T09:49:03.542Z,3.40
2017-12-30T09:51:31.823Z,3.50
2017-12-30T09:54:00.117Z,3.70
2017-12-30T09:56:27.621Z,3.50
2017-12-30T09:58:55.113Z,3.70
2017-12-30T10:01:23.396Z,3.70
2017-12-30T10:03:51.665Z,3.80
2017-12-30T10:06:19.204Z,3.70
2017-12-30T10:08:46.693Z,3.70
2017-12-30T10:11:14.961Z,3.70
2017-12-30T10:13:43.245Z,3.70
2017-12-30T10:16:11.538Z,3.70
2017-12-30T10:18:39.029Z,3.60
2017-12-30T10:21:06.523Z,3.60
2017-12-30T10:23:34.041Z,3.60
2017-12-30T10:26:01.536Z,3.70
2017-12-30T10:28:29.042Z,3.80
2017-12-30T10:30:56.569Z,3.90
2017-12-30T10:33:24.842Z,3.90
2017-12-30T10:35:53.139Z,4.00
2017-12-30T10:38:21.404Z,4.10
2017-12-30T10:40:49.672Z,4.20
2017-12-30T10:43:18.348Z,4.10
2017-12-30T10:45:45.849Z,4.20
2017-12-30T10:48:13.380Z,4.20
2017-12-30T10:50:40.876Z,4.20
2017-12-30T10:53:08.399Z,4.10
2017-12-30T10:55:35.903Z,4.10
2017-12-30T10:58:03.400Z,4.30
2017-12-30T11:00:36.500Z,4.40
2017-12-30T11:03:04.774Z,4.60
2017-12-30T11:05:32.280Z,4.50
2017-12-30T11:07:59.817Z,4.60
2017-12-30T11:10:28.101Z,4.50
2017-12-30T11:12:56.367Z,4.40
2017-12-30T11:15:24.644Z,4.30
2017-12-30T11:17:52.898Z,4.40
2017-12-30T11:20:20.413Z,4.30
2017-12-30T11:22:47.902Z,4.40
2017-12-30T11:25:15.432Z,4.50
2017-12-30T11:27:43.704Z,4.60
2017-12-30T11:30:11.236Z,4.50
2017-12-30T11:32:39.552Z,4.60
2017-12-30T11:35:07.072Z,4.50
2017-12-30T11:37:35.364Z,4.50
2017-12-30T11:40:03.623Z,4.50
2017-12-30T11:42:31.156Z,4.40
2017-12-30T11:44:58.643Z,4.60
2017-12-30T11:47:26.916Z,4.70
2017-12-30T11:49:54.453Z,4.60
2017-12-30T11:52:21.958Z,4.70
2017-12-30T11:54:49.490Z,4.70
2017-12-30T11:57:16.988Z,4.80
2017-12-30T11:59:44.503Z,4.70
2017-12-30T12:02:11.997Z,4.80
2017-12-30T12:04:39.492Z,4.90
2017-12-30T12:07:07.003Z,5.00
2017-12-30T12:09:35.260Z,5.10
2017-12-30T12:12:02.771Z,5.00
2017-12-30T12:14:31.176Z,5.10
2017-12-30T12:16:58.724Z,5.00
2017-12-30T12:19:26.227Z,5.10
2017-12-30T12:21:53.724Z,5.10
2017-12-30T12:24:21.252Z,5.00
2017-12-30T12:26:49.536Z,5.20
2017-12-30T12:29:17.802Z,5.40
2017-12-30T12:31:45.325Z,5.20
2017-12-30T12:34:12.821Z,5.40
2017-12-30T12:36:40.313Z,5.40
2017-12-30T12:39:07.829Z,5.60
2017-12-30T12:41:35.382Z,5.70
2017-12-30T12:44:02.944Z,5.90
2017-12-30T12:46:31.233Z,6.00
2017-12-30T12:48:58.796Z,5.90
2017-12-30T12:51:26.271Z,6.10
2017-12-30T12:53:54.531Z,6.10
2017-12-30T12:56:22.067Z,6.00
2017-12-30T12:58:49.572Z,6.10
2017-12-30T13:01:17.866Z,6.00
2017-12-30T13:03:45.360Z,5.90
2017-12-30T13:06:12.863Z,6.00
2017-12-30T13:08:41.157Z,6.20
2017-12-30T13:11:08.691Z,6.00
2017-12-30T13:13:36.226Z,6.30
2017-12-30T13:16:03.725Z,6.30
2017-12-30T13:18:31.997Z,6.30
2017-12-30T13:21:00.280Z,6.40
2017-12-30T13:23:27.787Z,6.30
2017-12-30T13:25:55.376Z,6.30
2017-12-30T13:28:22.968Z,6.40
2017-12-30T13:30:50.489Z,6.30
2017-12-30T13:33:18.008Z,6.40
2017-12-30T13:35:45.541Z,6.40
2017-12-30T13:38:13.820Z,6.60
2017-12-30T13:40:42.106Z,6.60
2017-12-30T13:43:09.628Z,6.50
2017-12-30T13:45:37.143Z,6.60
2017-12-30T13:48:04.642Z,6.60
2017-12-30T13:50:32.165Z,6.70
2017-12-30T13:52:59.686Z,6.70
2017-12-30T13:55:27.984Z,6.80
2017-12-30T13:57:55.479Z,6.70
2017-12-30T14:00:22.964Z,7.00
2017-12-30T14:02:50.480Z,7.00
2017-12-30T14:05:17.981Z,7.10
2017-12-30T14:07:45.473Z,7.20
2017-12-30T14:10:12.995Z,7.30
2017-12-30T14:12:40.496Z,7.50
2017-12-30T14:15:08.004Z,7.50
2017-12-30T14:17:35.520Z,7.50
2017-12-30T14:20:03.014Z,7.50
2017-12-30T14:22:30.510Z,7.50
2017-12-30T14:24:58.795Z,7.60
2017-12-30T14:27:27.064Z,7.60
2017-12-30T14:29:55.352Z,7.60
2017-12-30T14:32:23.624Z,7.60
2017-12-30T14:34:51.887Z,7.60
2017-12-30T14:37:19.404Z,7.50
2017-12-30T14:39:46.910Z,7.60
2017-12-30T14:42:14.413Z,7.60
2017-12-30T14:44:41.930Z,7.50
2017-12-30T14:47:09.436Z,7.70
2017-12-30T14:49:36.937Z,7.70
2017-12-30T14:52:04.678Z,7.70
2017-12-30T14:54:32.179Z,7.70
2017-12-30T14:57:00.464Z,7.70
2017-12-30T14:59:28.781Z,7.70
2017-12-30T15:01:56.302Z,7.70
2017-12-30T15:04:24.572Z,7.70
2017-12-30T15:06:52.839Z,7.80
2017-12-30T15:09:20.373Z,7.70
2017-12-30T15:11:47.886Z,7.80
2017-12-30T15:14:15.404Z,7.70
2017-12-30T15:16:42.911Z,7.60
2017-12-30T15:19:10.426Z,7.50
2017-12-30T15:21:37.965Z,7.50
2017-12-30T15:24:05.466Z,7.50
2017-12-30T15:26:33.750Z,7.50
2017-12-30T15:29:02.076Z,7.40
2017-12-30T15:31:29.598Z,7.40
2017-12-30T15:33:57.859Z,7.40
2017-12-30T15:36:26.121Z,7.40
2017-12-30T15:38:53.636Z,7.30
2017-12-30T15:41:21.145Z,7.40
2017-12-30T15:43:48.674Z,7.40
2017-12-30T15:46:16.175Z,7.40
2017-12-30T15:48:44.445Z,7.50
2017-12-30T15:51:12.732Z,7.50
2017-12-30T15:53:40.998Z,7.50
2017-12-30T15:56:09.285Z,7.40
2017-12-30T15:58:36.790Z,7.30
2017-12-30T16:01:04.296Z,7.30
2017-12-30T16:03:32.580Z,7.30
2017-12-30T16:06:00.847Z,7.20
2017-12-30T16:08:28.363Z,7.10
2017-12-30T16:10:56.623Z,7.10
2017-12-30T16:13:24.116Z,7.00
2017-12-30T16:15:51.868Z,7.00
2017-12-30T16:18:19.361Z,7.00
2017-12-30T16:20:46.864Z,7.00
2017-12-30T16:23:14.356Z,6.90
2017-12-30T16:25:41.854Z,7.00
2017-12-30T16:28:10.128Z,7.00
2017-12-30T16:30:38.393Z,7.10
2017-12-30T16:33:05.896Z,7.00
2017-12-30T16:35:33.413Z,7.10
2017-12-30T16:38:00.907Z,7.10
2017-12-30T16:40:28.413Z,7.20
2017-12-30T16:42:55.938Z,7.30
2017-12-30T16:45:23.436Z,7.40
2017-12-30T16:47:50.940Z,7.60
2017-12-30T16:50:18.452Z,7.70
2017-12-30T16:52:45.966Z,7.80
2017-12-30T16:55:13.489Z,7.90
2017-12-30T16:57:40.983Z,8.10
2017-12-30T17:00:08.481Z,8.10
2017-12-30T17:02:36.018Z,8.10
2017-12-30T17:05:03.517Z,8.10
2017-12-30T17:07:31.007Z,8.10
2017-12-30T17:09:59.284Z,8.10
2017-12-30T17:12:27.544Z,8.20
2017-12-30T17:14:55.060Z,8.10
2017-12-30T17:17:22.544Z,8.30
2017-12-30T17:19:51.048Z,8.50
2017-12-30T17:22:19.334Z,8.60
2017-12-30T17:24:46.851Z,8.50
2017-12-30T17:27:14.383Z,8.60
2017-12-30T17:29:41.883Z,8.50
2017-12-30T17:32:09.375Z,8.50
2017-12-30T17:34:37.643Z,8.50
2017-12-30T17:37:05.908Z,8.50
2017-12-30T17:39:34.197Z,8.50
2017-12-30T17:42:02.537Z,8.40
2017-12-30T17:44:30.025Z,8.40
2017-12-30T17:46:58.324Z,8.10
2017-12-30T17:49:26.594Z,8.00
2017-12-30T17:51:54.856Z,7.90
2017-12-30T17:54:22.378Z,7.80
2017-12-30T17:56:49.961Z,7.90
2017-12-30T17:59:17.488Z,7.80
2017-12-30T18:01:45.747Z,7.90
2017-12-30T18:04:13.251Z,7.80
2017-12-30T18:06:40.775Z,7.90
2017-12-30T18:09:09.040Z,7.90
2017-12-30T18:11:36.560Z,7.90
2017-12-30T18:14:04.060Z,7.90
2017-12-30T18:16:31.573Z,7.90
2017-12-30T18:18:59.100Z,7.90
2017-12-30T18:21:26.616Z,8.00
2017-12-30T18:23:54.913Z,8.00
2017-12-30T18:26:22.408Z,7.90
2017-12-30T18:28:49.903Z,8.00
2017-12-30T18:31:17.417Z,8.00
2017-12-30T18:33:44.912Z,8.00
2017-12-30T18:36:12.405Z,8.10
2017-12-30T18:38:39.930Z,8.20
2017-12-30T18:41:07.415Z,8.20
2017-12-30T18:43:34.912Z,8.20
2017-12-30T18:46:03.429Z,8.20
2017-12-30T18:48:30.920Z,8.10
2017-12-30T18:50:59.184Z,8.10
2017-12-30T18:53:27.476Z,8.20
2017-12-30T18:55:55.754Z,8.20
2017-12-30T18:58:24.045Z,8.10
2017-12-30T19:00:51.547Z,8.10
2017-12-30T19:03:19.048Z,8.20
2017-12-30T19:05:46.572Z,8.10
2017-12-30T19:08:14.071Z,8.20
2017-12-30T19:10:42.407Z,8.30
2017-12-30T19:13:09.922Z,8.30
2017-12-30T19:15:38.338Z,8.30
2017-12-30T19:18:05.858Z,8.30
2017-12-30T19:20:33.364Z,8.40
2017-12-30T19:23:00.878Z,8.40
2017-12-30T19:25:28.406Z,8.40
2017-12-30T19:27:55.898Z,8.50
2017-12-30T19:30:23.405Z,8.50
2017-12-30T19:32:50.918Z,8.50
2017-12-30T19:35:18.409Z,8.60
2017-12-30T19:37:45.904Z,8.60
2017-12-30T19:40:13.426Z,8.60
2017-12-30T19:42:40.923Z,8.70
2017-12-30T19:45:08.433Z,8.70
2017-12-30T19:47:35.959Z,8.70
2017-12-30T19:50:04.219Z,8.70
2017-12-30T19:52:31.740Z,8.60
2017-12-30T19:54:59.239Z,8.70
2017-12-30T19:57:26.727Z,8.70
2017-12-30T19:59:54.239Z,8.70
2017-12-30T20:02:21.738Z,8.70
2017-12-30T20:04:50.001Z,8.70
2017-12-30T20:07:18.288Z,8.70
2017-12-30T20:09:45.779Z,8.60
2017-12-30T20:12:13.271Z,8.70
2017-12-30T20:14:40.792Z,8.60
2017-12-30T20:17:08.296Z,8.60
2017-12-30T20:19:35.800Z,8.60
2017-12-30T20:22:03.295Z,8.60
2017-12-30T20:24:30.798Z,8.60
2017-12-30T20:26:59.079Z,8.70
2017-12-30T20:29:27.335Z,8.70
2017-12-30T20:31:54.851Z,8.60
2017-12-30T20:34:22.343Z,8.70
2017-12-30T20:36:49.837Z,8.70
2017-12-30T20:39:17.365Z,8.70
2017-12-30T20:41:44.856Z,8.80
2017-12-30T20:44:13.128Z,8.80
2017-12-30T20:46:41.408Z,8.70
2017-12-30T20:49:09.673Z,8.70
2017-12-30T20:51:37.947Z,8.70
2017-12-30T20:54:06.228Z,8.70
2017-12-30T20:56:34.493Z,8.70
2017-12-30T20:59:02.012Z,8.60
2017-12-30T21:01:29.500Z,8.70
2017-12-30T21:03:57.000Z,8.80
2017-12-30T21:06:24.523Z,8.70
2017-12-30T21:08:52.016Z,8.70
2017-12-30T21:11:20.304Z,8.70
2017-12-30T21:13:47.787Z,8.70
2017-12-30T21:16:15.295Z,8.80
2017-12-30T21:18:43.595Z,8.90
2017-12-30T21:21:11.079Z,8.80
2017-12-30T21:23:38.584Z,8.90
2017-12-30T21:26:06.116Z,8.90
2017-12-30T21:28:33.615Z,9.00
2017-12-30T21:31:01.877Z,9.00
2017-12-30T21:33:29.407Z,8.90
2017-12-30T21:35:56.972Z,9.00
2017-12-30T21:38:24.468Z,8.90
2017-12-30T21:40:52.798Z,9.00
2017-12-30T21:43:20.303Z,8.90
2017-12-30T21:45:47.933Z,9.00
2017-12-30T21:48:19.298Z,9.00
2017-12-30T21:50:58.569Z,9.00
2017-12-30T21:53:26.834Z,9.00
2017-12-30T21:55:55.101Z,9.00
2017-12-30T21:58:22.624Z,9.00
2017-12-30T22:00:50.120Z,9.10
2017-12-30T22:03:17.637Z,9.20
2017-12-30T22:05:45.133Z,9.20
2017-12-30T22:08:12.693Z,9.20
2017-12-30T22:10:40.294Z,9.20
2017-12-30T22:13:07.752Z,9.20
2017-12-30T22:15:35.715Z,9.20
2017-12-30T22:18:04.496Z,9.20
2017-12-30T22:20:32.756Z,9.30
2017-12-30T22:23:01.310Z,9.30
2017-12-30T22:25:29.235Z,9.20
2017-12-30T22:27:56.736Z,9.30
2017-12-30T22:30:24.250Z,9.30
2017-12-30T22:32:54.709Z,9.30
2017-12-30T22:35:22.259Z,9.30
2017-12-30T22:37:49.790Z,9.30
2017-12-30T22:40:18.062Z,9.30
2017-12-30T22:42:46.324Z,9.30
2017-12-30T22:45:13.850Z,9.20
2017-12-30T22:47:41.343Z,9.30
2017-12-30T22:50:08.845Z,9.40
2017-12-30T22:52:36.385Z,9.30
2017-12-30T22:55:03.876Z,9.40
2017-12-30T22:57:31.372Z,9.50
2017-12-30T22:59:58.888Z,9.40
2017-12-30T23:02:26.395Z,9.50
2017-12-30T23:04:53.948Z,9.50
2017-12-30T23:07:21.472Z,9.50
2017-12-30T23:09:48.973Z,9.50
2017-12-30T23:12:16.501Z,9.50
2017-12-30T23:14:44.001Z,9.50
2017-12-30T23:17:11.516Z,9.40
2017-12-30T23:19:39.020Z,9.50
2017-12-30T23:22:06.522Z,9.50
2017-12-30T23:24:34.036Z,9.40
2017-12-30T23:27:01.528Z,9.30
2017-12-30T23:29:29.044Z,9.40
2017-12-30T23:31:56.544Z,9.40
2017-12-30T23:34:24.058Z,9.50
2017-12-30T23:36:51.578Z,9.50
2017-12-30T23:39:19.078Z,9.40
2017-12-30T23:41:46.591Z,9.50
2017-12-30T23:44:14.093Z,9.40
2017-12-30T23:46:41.588Z,9.40
2017-12-30T23:49:09.872Z,9.40
2017-12-30T23:51:37.370Z,9.30
2017-12-30T23:54:04.888Z,9.30
2017-12-30T23:56:32.380Z,9.30
2017-12-30T23:58:59.896Z,9.30
